sensor_id;sensor_type;location;lat;lon;timestamp;P1;durP1;ratioP1;P2;durP2;ratioP2
44750;SDS011;30477;48.224;11.470;2023-04-04T00:00:20;7.50;;;3.90;;
44750;SDS011;30477;48.224;11.470;2023-04-04T00:02:46;4.97;;;3.20;;
44750;SDS011;30477;48.224;11.470;2023-04-04T00:07:37;7.18;;;3.78;;
44750;SDS011;30477;48.224;11.470;2023-04-04T00:10:03;6.10;;;3.57;;
44750;SDS011;30477;48.224;11.470;2023-04-04T00:12:28;8.23;;;4.07;;
44750;SDS011;30477;48.224;11.470;2023-04-04T00:14:54;6.53;;;3.67;;
44750;SDS011;30477;48.224;11.470;2023-04-04T00:17:19;5.63;;;3.73;;
44750;SDS011;30477;48.224;11.470;2023-04-04T00:19:45;5.23;;;3.50;;
44750;SDS011;30477;48.224;11.470;2023-04-04T00:22:10;6.53;;;3.40;;
44750;SDS011;30477;48.224;11.470;2023-04-04T00:24:37;5.55;;;3.85;;
44750;SDS011;30477;48.224;11.470;2023-04-04T00:27:03;5.63;;;4.10;;
44750;SDS011;30477;48.224;11.470;2023-04-04T00:29:28;5.00;;;3.47;;
44750;SDS011;30477;48.224;11.470;2023-04-04T00:31:53;5.93;;;3.40;;
44750;SDS011;30477;48.224;11.470;2023-04-04T00:34:19;6.10;;;4.07;;
44750;SDS011;30477;48.224;11.470;2023-04-04T00:36:44;9.83;;;4.10;;
44750;SDS011;30477;48.224;11.470;2023-04-04T00:39:10;5.68;;;3.42;;
44750;SDS011;30477;48.224;11.470;2023-04-04T00:41:36;5.90;;;3.53;;
44750;SDS011;30477;48.224;11.470;2023-04-04T00:44:01;6.95;;;3.72;;
44750;SDS011;30477;48.224;11.470;2023-04-04T00:46:27;6.03;;;3.33;;
44750;SDS011;30477;48.224;11.470;2023-04-04T00:51:18;5.35;;;3.75;;
44750;SDS011;30477;48.224;11.470;2023-04-04T00:53:45;8.88;;;3.50;;
44750;SDS011;30477;48.224;11.470;2023-04-04T00:56:11;6.97;;;3.88;;
44750;SDS011;30477;48.224;11.470;2023-04-04T00:58:37;5.93;;;3.72;;
44750;SDS011;30477;48.224;11.470;2023-04-04T01:01:03;7.53;;;3.80;;
44750;SDS011;30477;48.224;11.470;2023-04-04T01:03:29;6.20;;;4.13;;
44750;SDS011;30477;48.224;11.470;2023-04-04T01:08:22;7.63;;;4.05;;
44750;SDS011;30477;48.224;11.470;2023-04-04T01:10:49;7.22;;;4.05;;
44750;SDS011;30477;48.224;11.470;2023-04-04T01:13:15;7.00;;;4.00;;
44750;SDS011;30477;48.224;11.470;2023-04-04T01:15:40;6.90;;;3.97;;
44750;SDS011;30477;48.224;11.470;2023-04-04T01:18:06;5.35;;;4.03;;
44750;SDS011;30477;48.224;11.470;2023-04-04T01:20:36;5.82;;;3.90;;
44750;SDS011;30477;48.224;11.470;2023-04-04T01:23:08;5.47;;;3.85;;
44750;SDS011;30477;48.224;11.470;2023-04-04T01:25:35;6.88;;;4.10;;
44750;SDS011;30477;48.224;11.470;2023-04-04T01:28:00;6.43;;;4.40;;
44750;SDS011;30477;48.224;11.470;2023-04-04T01:30:26;5.00;;;3.77;;
44750;SDS011;30477;48.224;11.470;2023-04-04T01:32:59;7.40;;;3.78;;
44750;SDS011;30477;48.224;11.470;2023-04-04T01:35:34;6.00;;;4.20;;
44750;SDS011;30477;48.224;11.470;2023-04-04T01:38:41;7.90;;;3.90;;
44750;SDS011;30477;48.224;11.470;2023-04-04T01:41:14;7.07;;;3.92;;
44750;SDS011;30477;48.224;11.470;2023-04-04T01:43:43;6.32;;;3.80;;
44750;SDS011;30477;48.224;11.470;2023-04-04T01:46:10;4.75;;;3.42;;
44750;SDS011;30477;48.224;11.470;2023-04-04T01:48:36;5.68;;;3.85;;
44750;SDS011;30477;48.224;11.470;2023-04-04T01:51:01;5.80;;;3.80;;
44750;SDS011;30477;48.224;11.470;2023-04-04T01:53:27;5.33;;;3.57;;
44750;SDS011;30477;48.224;11.470;2023-04-04T01:55:52;7.17;;;3.60;;
44750;SDS011;30477;48.224;11.470;2023-04-04T01:58:18;7.25;;;3.60;;
44750;SDS011;30477;48.224;11.470;2023-04-04T02:00:44;7.22;;;3.60;;
44750;SDS011;30477;48.224;11.470;2023-04-04T02:03:09;6.23;;;3.77;;
44750;SDS011;30477;48.224;11.470;2023-04-04T02:05:35;4.13;;;3.70;;
44750;SDS011;30477;48.224;11.470;2023-04-04T02:08:00;6.60;;;3.95;;
44750;SDS011;30477;48.224;11.470;2023-04-04T02:12:53;5.68;;;3.53;;
44750;SDS011;30477;48.224;11.470;2023-04-04T02:15:19;5.55;;;3.70;;
44750;SDS011;30477;48.224;11.470;2023-04-04T02:17:47;9.00;;;3.90;;
44750;SDS011;30477;48.224;11.470;2023-04-04T02:20:13;6.90;;;3.58;;
44750;SDS011;30477;48.224;11.470;2023-04-04T02:22:39;7.18;;;4.13;;
44750;SDS011;30477;48.224;11.470;2023-04-04T02:25:04;8.10;;;4.00;;
44750;SDS011;30477;48.224;11.470;2023-04-04T02:27:30;6.97;;;3.85;;
44750;SDS011;30477;48.224;11.470;2023-04-04T02:29:56;7.32;;;3.83;;
44750;SDS011;30477;48.224;11.470;2023-04-04T02:32:22;7.67;;;3.60;;
44750;SDS011;30477;48.224;11.470;2023-04-04T02:34:47;5.53;;;3.40;;
44750;SDS011;30477;48.224;11.470;2023-04-04T02:37:12;5.80;;;3.57;;
44750;SDS011;30477;48.224;11.470;2023-04-04T02:39:38;6.27;;;3.77;;
44750;SDS011;30477;48.224;11.470;2023-04-04T02:42:03;5.33;;;3.63;;
44750;SDS011;30477;48.224;11.470;2023-04-04T02:44:29;6.88;;;3.70;;
44750;SDS011;30477;48.224;11.470;2023-04-04T02:46:54;6.90;;;3.83;;
44750;SDS011;30477;48.224;11.470;2023-04-04T02:49:20;6.27;;;4.03;;
44750;SDS011;30477;48.224;11.470;2023-04-04T02:51:45;5.27;;;3.50;;
44750;SDS011;30477;48.224;11.470;2023-04-04T02:54:11;6.03;;;3.85;;
44750;SDS011;30477;48.224;11.470;2023-04-04T02:56:37;4.97;;;3.22;;
44750;SDS011;30477;48.224;11.470;2023-04-04T02:59:02;7.77;;;3.33;;
44750;SDS011;30477;48.224;11.470;2023-04-04T03:01:28;5.35;;;3.67;;
44750;SDS011;30477;48.224;11.470;2023-04-04T03:03:53;10.97;;;3.70;;
44750;SDS011;30477;48.224;11.470;2023-04-04T03:06:19;5.78;;;3.78;;
44750;SDS011;30477;48.224;11.470;2023-04-04T03:08:44;7.37;;;3.50;;
44750;SDS011;30477;48.224;11.470;2023-04-04T03:11:10;6.27;;;3.80;;
44750;SDS011;30477;48.224;11.470;2023-04-04T03:13:35;5.30;;;3.33;;
44750;SDS011;30477;48.224;11.470;2023-04-04T03:16:01;4.97;;;3.53;;
44750;SDS011;30477;48.224;11.470;2023-04-04T03:18:30;4.07;;;3.38;;
44750;SDS011;30477;48.224;11.470;2023-04-04T03:20:57;4.05;;;3.30;;
44750;SDS011;30477;48.224;11.470;2023-04-04T03:23:22;5.83;;;3.80;;
44750;SDS011;30477;48.224;11.470;2023-04-04T03:25:48;7.50;;;3.97;;
44750;SDS011;30477;48.224;11.470;2023-04-04T03:28:13;7.00;;;3.80;;
44750;SDS011;30477;48.224;11.470;2023-04-04T03:30:38;7.27;;;3.50;;
44750;SDS011;30477;48.224;11.470;2023-04-04T03:33:04;6.03;;;3.83;;
44750;SDS011;30477;48.224;11.470;2023-04-04T03:35:37;6.30;;;3.80;;
44750;SDS011;30477;48.224;11.470;2023-04-04T03:38:03;4.47;;;3.50;;
44750;SDS011;30477;48.224;11.470;2023-04-04T03:40:28;6.57;;;3.87;;
44750;SDS011;30477;48.224;11.470;2023-04-04T03:42:53;6.00;;;3.70;;
44750;SDS011;30477;48.224;11.470;2023-04-04T03:45:19;4.90;;;3.43;;
44750;SDS011;30477;48.224;11.470;2023-04-04T03:47:44;8.80;;;3.47;;
44750;SDS011;30477;48.224;11.470;2023-04-04T03:50:09;8.07;;;3.83;;
44750;SDS011;30477;48.224;11.470;2023-04-04T03:52:38;5.28;;;3.95;;
44750;SDS011;30477;48.224;11.470;2023-04-04T03:55:04;7.20;;;3.35;;
44750;SDS011;30477;48.224;11.470;2023-04-04T03:57:31;7.07;;;3.55;;
44750;SDS011;30477;48.224;11.470;2023-04-04T03:59:57;7.13;;;3.83;;
44750;SDS011;30477;48.224;11.470;2023-04-04T04:02:22;6.82;;;4.05;;
44750;SDS011;30477;48.224;11.470;2023-04-04T04:04:47;4.67;;;3.80;;
44750;SDS011;30477;48.224;11.470;2023-04-04T04:07:13;8.50;;;3.70;;
44750;SDS011;30477;48.224;11.470;2023-04-04T04:09:38;5.17;;;3.30;;
44750;SDS011;30477;48.224;11.470;2023-04-04T04:12:03;6.83;;;3.90;;
44750;SDS011;30477;48.224;11.470;2023-04-04T04:14:29;5.35;;;3.72;;
44750;SDS011;30477;48.224;11.470;2023-04-04T04:16:54;5.40;;;3.57;;
44750;SDS011;30477;48.224;11.470;2023-04-04T04:19:20;7.80;;;3.60;;
44750;SDS011;30477;48.224;11.470;2023-04-04T04:21:45;8.40;;;4.27;;
44750;SDS011;30477;48.224;11.470;2023-04-04T04:24:10;5.87;;;4.00;;
44750;SDS011;30477;48.224;11.470;2023-04-04T04:26:36;5.87;;;3.73;;
44750;SDS011;30477;48.224;11.470;2023-04-04T04:29:01;5.90;;;3.83;;
44750;SDS011;30477;48.224;11.470;2023-04-04T04:31:26;6.77;;;4.00;;
44750;SDS011;30477;48.224;11.470;2023-04-04T04:33:52;6.70;;;3.87;;
44750;SDS011;30477;48.224;11.470;2023-04-04T04:36:17;8.53;;;4.40;;
44750;SDS011;30477;48.224;11.470;2023-04-04T04:38:42;6.27;;;4.00;;
44750;SDS011;30477;48.224;11.470;2023-04-04T04:41:08;6.13;;;4.27;;
44750;SDS011;30477;48.224;11.470;2023-04-04T04:43:33;6.17;;;3.77;;
44750;SDS011;30477;48.224;11.470;2023-04-04T04:46:00;7.18;;;4.20;;
44750;SDS011;30477;48.224;11.470;2023-04-04T04:48:26;7.03;;;4.05;;
44750;SDS011;30477;48.224;11.470;2023-04-04T04:50:51;6.27;;;4.13;;
44750;SDS011;30477;48.224;11.470;2023-04-04T04:53:17;6.40;;;3.60;;
44750;SDS011;30477;48.224;11.470;2023-04-04T04:55:42;7.80;;;4.87;;
44750;SDS011;30477;48.224;11.470;2023-04-04T04:58:08;8.80;;;4.17;;
44750;SDS011;30477;48.224;11.470;2023-04-04T05:00:35;8.85;;;4.55;;
44750;SDS011;30477;48.224;11.470;2023-04-04T05:03:01;8.57;;;3.97;;
44750;SDS011;30477;48.224;11.470;2023-04-04T05:05:30;7.78;;;4.30;;
44750;SDS011;30477;48.224;11.470;2023-04-04T05:07:56;4.47;;;3.53;;
44750;SDS011;30477;48.224;11.470;2023-04-04T05:10:22;6.50;;;3.93;;
44750;SDS011;30477;48.224;11.470;2023-04-04T05:12:47;6.67;;;3.87;;
44750;SDS011;30477;48.224;11.470;2023-04-04T05:15:12;8.17;;;3.80;;
44750;SDS011;30477;48.224;11.470;2023-04-04T05:17:38;6.07;;;3.80;;
44750;SDS011;30477;48.224;11.470;2023-04-04T05:20:05;6.43;;;3.90;;
44750;SDS011;30477;48.224;11.470;2023-04-04T05:22:31;4.75;;;3.80;;
44750;SDS011;30477;48.224;11.470;2023-04-04T05:24:57;6.25;;;3.90;;
44750;SDS011;30477;48.224;11.470;2023-04-04T05:27:22;6.97;;;3.90;;
44750;SDS011;30477;48.224;11.470;2023-04-04T05:29:48;5.57;;;3.30;;
44750;SDS011;30477;48.224;11.470;2023-04-04T05:32:13;5.57;;;3.90;;
44750;SDS011;30477;48.224;11.470;2023-04-04T05:37:05;10.60;;;3.60;;
44750;SDS011;30477;48.224;11.470;2023-04-04T05:39:30;7.07;;;4.00;;
44750;SDS011;30477;48.224;11.470;2023-04-04T05:41:55;7.07;;;4.40;;
44750;SDS011;30477;48.224;11.470;2023-04-04T05:44:21;7.07;;;4.73;;
44750;SDS011;30477;48.224;11.470;2023-04-04T05:46:46;7.07;;;3.83;;
44750;SDS011;30477;48.224;11.470;2023-04-04T05:49:12;5.93;;;3.63;;
44750;SDS011;30477;48.224;11.470;2023-04-04T05:51:37;4.87;;;4.23;;
44750;SDS011;30477;48.224;11.470;2023-04-04T05:54:02;7.57;;;3.93;;
44750;SDS011;30477;48.224;11.470;2023-04-04T05:56:28;5.47;;;3.60;;
44750;SDS011;30477;48.224;11.470;2023-04-04T05:58:53;10.77;;;4.40;;
44750;SDS011;30477;48.224;11.470;2023-04-04T06:01:18;6.60;;;4.07;;
44750;SDS011;30477;48.224;11.470;2023-04-04T06:03:44;6.40;;;3.87;;
44750;SDS011;30477;48.224;11.470;2023-04-04T06:06:09;7.43;;;4.27;;
44750;SDS011;30477;48.224;11.470;2023-04-04T06:08:35;7.77;;;4.30;;
44750;SDS011;30477;48.224;11.470;2023-04-04T06:11:00;5.80;;;3.83;;
44750;SDS011;30477;48.224;11.470;2023-04-04T06:13:25;8.87;;;4.23;;
44750;SDS011;30477;48.224;11.470;2023-04-04T06:15:51;6.57;;;3.90;;
44750;SDS011;30477;48.224;11.470;2023-04-04T06:18:16;8.33;;;4.20;;
44750;SDS011;30477;48.224;11.470;2023-04-04T06:20:41;5.60;;;4.20;;
44750;SDS011;30477;48.224;11.470;2023-04-04T06:23:07;7.03;;;4.17;;
44750;SDS011;30477;48.224;11.470;2023-04-04T06:25:34;6.55;;;4.05;;
44750;SDS011;30477;48.224;11.470;2023-04-04T06:28:00;10.63;;;4.65;;
44750;SDS011;30477;48.224;11.470;2023-04-04T06:30:27;8.85;;;4.20;;
44750;SDS011;30477;48.224;11.470;2023-04-04T06:32:53;7.60;;;4.22;;
44750;SDS011;30477;48.224;11.470;2023-04-04T06:35:18;8.33;;;4.40;;
44750;SDS011;30477;48.224;11.470;2023-04-04T06:37:43;6.57;;;3.80;;
44750;SDS011;30477;48.224;11.470;2023-04-04T06:40:09;6.30;;;3.93;;
44750;SDS011;30477;48.224;11.470;2023-04-04T06:42:34;7.85;;;4.25;;
44750;SDS011;30477;48.224;11.470;2023-04-04T06:45:00;8.00;;;4.47;;
44750;SDS011;30477;48.224;11.470;2023-04-04T06:47:25;6.53;;;4.27;;
44750;SDS011;30477;48.224;11.470;2023-04-04T06:49:51;10.63;;;5.00;;
44750;SDS011;30477;48.224;11.470;2023-04-04T06:52:16;5.07;;;4.13;;
44750;SDS011;30477;48.224;11.470;2023-04-04T06:54:42;7.63;;;4.57;;
44750;SDS011;30477;48.224;11.470;2023-04-04T06:57:08;5.85;;;4.57;;
44750;SDS011;30477;48.224;11.470;2023-04-04T06:59:34;8.48;;;4.50;;
44750;SDS011;30477;48.224;11.470;2023-04-04T07:01:59;5.73;;;4.10;;
44750;SDS011;30477;48.224;11.470;2023-04-04T07:04:24;5.57;;;4.67;;
44750;SDS011;30477;48.224;11.470;2023-04-04T07:06:51;7.22;;;4.68;;
44750;SDS011;30477;48.224;11.470;2023-04-04T07:09:16;6.67;;;4.50;;
44750;SDS011;30477;48.224;11.470;2023-04-04T07:11:42;8.18;;;4.35;;
44750;SDS011;30477;48.224;11.470;2023-04-04T07:14:07;6.53;;;4.43;;
44750;SDS011;30477;48.224;11.470;2023-04-04T07:16:33;6.47;;;4.22;;
44750;SDS011;30477;48.224;11.470;2023-04-04T07:19:00;6.30;;;4.68;;
44750;SDS011;30477;48.224;11.470;2023-04-04T07:21:25;7.30;;;4.50;;
44750;SDS011;30477;48.224;11.470;2023-04-04T07:23:51;6.73;;;4.50;;
44750;SDS011;30477;48.224;11.470;2023-04-04T07:28:42;6.55;;;4.40;;
44750;SDS011;30477;48.224;11.470;2023-04-04T07:31:08;8.17;;;4.83;;
44750;SDS011;30477;48.224;11.470;2023-04-04T07:33:33;7.50;;;5.27;;
44750;SDS011;30477;48.224;11.470;2023-04-04T07:36:01;9.50;;;5.10;;
44750;SDS011;30477;48.224;11.470;2023-04-04T07:38:27;7.63;;;5.15;;
44750;SDS011;30477;48.224;11.470;2023-04-04T07:40:53;10.25;;;5.20;;
44750;SDS011;30477;48.224;11.470;2023-04-04T07:45:45;8.82;;;5.25;;
44750;SDS011;30477;48.224;11.470;2023-04-04T07:48:10;7.07;;;4.90;;
44750;SDS011;30477;48.224;11.470;2023-04-04T07:50:36;8.43;;;4.83;;
44750;SDS011;30477;48.224;11.470;2023-04-04T07:53:01;6.37;;;4.67;;
44750;SDS011;30477;48.224;11.470;2023-04-04T07:55:26;7.90;;;4.90;;
44750;SDS011;30477;48.224;11.470;2023-04-04T07:57:52;7.78;;;4.90;;
44750;SDS011;30477;48.224;11.470;2023-04-04T08:00:18;6.53;;;4.82;;
44750;SDS011;30477;48.224;11.470;2023-04-04T08:02:46;9.05;;;5.47;;
44750;SDS011;30477;48.224;11.470;2023-04-04T08:05:15;8.38;;;5.35;;
44750;SDS011;30477;48.224;11.470;2023-04-04T08:07:40;10.67;;;5.00;;
44750;SDS011;30477;48.224;11.470;2023-04-04T08:10:06;6.75;;;4.97;;
44750;SDS011;30477;48.224;11.470;2023-04-04T08:12:32;7.75;;;4.95;;
44750;SDS011;30477;48.224;11.470;2023-04-04T08:14:58;7.47;;;5.03;;
44750;SDS011;30477;48.224;11.470;2023-04-04T08:17:23;8.70;;;5.40;;
44750;SDS011;30477;48.224;11.470;2023-04-04T08:19:48;7.63;;;4.70;;
44750;SDS011;30477;48.224;11.470;2023-04-04T08:22:14;9.33;;;5.13;;
44750;SDS011;30477;48.224;11.470;2023-04-04T08:24:39;8.10;;;4.97;;
44750;SDS011;30477;48.224;11.470;2023-04-04T08:27:04;5.73;;;4.60;;
44750;SDS011;30477;48.224;11.470;2023-04-04T08:29:30;9.10;;;4.72;;
44750;SDS011;30477;48.224;11.470;2023-04-04T08:31:56;5.95;;;4.65;;
44750;SDS011;30477;48.224;11.470;2023-04-04T08:34:22;11.40;;;5.20;;
44750;SDS011;30477;48.224;11.470;2023-04-04T08:36:47;7.20;;;5.07;;
44750;SDS011;30477;48.224;11.470;2023-04-04T08:39:13;7.53;;;4.97;;
44750;SDS011;30477;48.224;11.470;2023-04-04T08:41:38;8.03;;;4.80;;
44750;SDS011;30477;48.224;11.470;2023-04-04T08:44:07;9.45;;;5.07;;
44750;SDS011;30477;48.224;11.470;2023-04-04T08:46:41;9.38;;;5.20;;
44750;SDS011;30477;48.224;11.470;2023-04-04T08:49:07;7.32;;;5.22;;
44750;SDS011;30477;48.224;11.470;2023-04-04T08:51:34;6.60;;;4.75;;
44750;SDS011;30477;48.224;11.470;2023-04-04T08:54:01;7.93;;;5.03;;
44750;SDS011;30477;48.224;11.470;2023-04-04T08:56:27;7.15;;;4.70;;
44750;SDS011;30477;48.224;11.470;2023-04-04T08:58:53;5.88;;;5.22;;
44750;SDS011;30477;48.224;11.470;2023-04-04T09:01:19;6.60;;;4.78;;
44750;SDS011;30477;48.224;11.470;2023-04-04T09:03:46;7.20;;;4.80;;
44750;SDS011;30477;48.224;11.470;2023-04-04T09:06:12;5.40;;;4.40;;
44750;SDS011;30477;48.224;11.470;2023-04-04T09:08:39;7.80;;;4.43;;
44750;SDS011;30477;48.224;11.470;2023-04-04T09:11:05;11.20;;;5.00;;
44750;SDS011;30477;48.224;11.470;2023-04-04T09:13:31;6.03;;;4.93;;
44750;SDS011;30477;48.224;11.470;2023-04-04T09:15:57;6.77;;;4.57;;
44750;SDS011;30477;48.224;11.470;2023-04-04T09:18:24;7.78;;;5.05;;
44750;SDS011;30477;48.224;11.470;2023-04-04T09:20:49;10.63;;;5.47;;
44750;SDS011;30477;48.224;11.470;2023-04-04T09:23:16;7.03;;;5.00;;
44750;SDS011;30477;48.224;11.470;2023-04-04T09:25:49;10.23;;;4.90;;
44750;SDS011;30477;48.224;11.470;2023-04-04T09:28:16;7.82;;;5.40;;
44750;SDS011;30477;48.224;11.470;2023-04-04T09:30:42;8.25;;;4.70;;
44750;SDS011;30477;48.224;11.470;2023-04-04T09:33:11;8.18;;;5.00;;
44750;SDS011;30477;48.224;11.470;2023-04-04T09:35:38;5.55;;;4.75;;
44750;SDS011;30477;48.224;11.470;2023-04-04T09:38:07;5.35;;;4.50;;
44750;SDS011;30477;48.224;11.470;2023-04-04T09:40:36;6.80;;;5.00;;
44750;SDS011;30477;48.224;11.470;2023-04-04T09:43:02;8.50;;;4.63;;
44750;SDS011;30477;48.224;11.470;2023-04-04T09:45:32;6.30;;;4.40;;
44750;SDS011;30477;48.224;11.470;2023-04-04T09:47:58;8.02;;;4.68;;
44750;SDS011;30477;48.224;11.470;2023-04-04T09:50:24;7.83;;;5.00;;
44750;SDS011;30477;48.224;11.470;2023-04-04T09:52:53;7.00;;;4.85;;
44750;SDS011;30477;48.224;11.470;2023-04-04T09:55:21;6.70;;;4.72;;
44750;SDS011;30477;48.224;11.470;2023-04-04T09:57:55;7.63;;;4.82;;
44750;SDS011;30477;48.224;11.470;2023-04-04T10:00:21;5.68;;;4.53;;
44750;SDS011;30477;48.224;11.470;2023-04-04T10:02:47;8.10;;;4.97;;
44750;SDS011;30477;48.224;11.470;2023-04-04T10:05:13;8.02;;;5.40;;
44750;SDS011;30477;48.224;11.470;2023-04-04T10:07:40;7.35;;;5.10;;
44750;SDS011;30477;48.224;11.470;2023-04-04T10:10:07;6.78;;;5.00;;
44750;SDS011;30477;48.224;11.470;2023-04-04T10:12:37;7.82;;;4.50;;
44750;SDS011;30477;48.224;11.470;2023-04-04T10:15:03;9.88;;;4.93;;
44750;SDS011;30477;48.224;11.470;2023-04-04T10:17:29;7.07;;;5.00;;
44750;SDS011;30477;48.224;11.470;2023-04-04T10:19:56;6.63;;;4.82;;
44750;SDS011;30477;48.224;11.470;2023-04-04T10:22:25;8.15;;;5.40;;
44750;SDS011;30477;48.224;11.470;2023-04-04T10:24:51;8.40;;;4.87;;
44750;SDS011;30477;48.224;11.470;2023-04-04T10:27:18;7.97;;;4.95;;
44750;SDS011;30477;48.224;11.470;2023-04-04T10:32:11;6.85;;;4.72;;
44750;SDS011;30477;48.224;11.470;2023-04-04T10:34:44;7.18;;;4.88;;
44750;SDS011;30477;48.224;11.470;2023-04-04T10:37:19;8.48;;;5.40;;
44750;SDS011;30477;48.224;11.470;2023-04-04T10:39:54;6.75;;;5.20;;
44750;SDS011;30477;48.224;11.470;2023-04-04T10:42:24;7.70;;;5.15;;
44750;SDS011;30477;48.224;11.470;2023-04-04T10:44:50;7.15;;;5.20;;
44750;SDS011;30477;48.224;11.470;2023-04-04T10:47:16;7.65;;;4.93;;
44750;SDS011;30477;48.224;11.470;2023-04-04T10:49:46;7.30;;;4.97;;
44750;SDS011;30477;48.224;11.470;2023-04-04T10:52:12;8.00;;;5.05;;
44750;SDS011;30477;48.224;11.470;2023-04-04T10:54:41;8.00;;;5.18;;
44750;SDS011;30477;48.224;11.470;2023-04-04T10:57:08;6.18;;;4.85;;
44750;SDS011;30477;48.224;11.470;2023-04-04T10:59:33;7.32;;;4.85;;
44750;SDS011;30477;48.224;11.470;2023-04-04T11:02:42;7.72;;;4.75;;
44750;SDS011;30477;48.224;11.470;2023-04-04T11:05:17;7.05;;;4.65;;
44750;SDS011;30477;48.224;11.470;2023-04-04T11:07:44;6.15;;;4.85;;
44750;SDS011;30477;48.224;11.470;2023-04-04T11:10:20;6.82;;;5.45;;
44750;SDS011;30477;48.224;11.470;2023-04-04T11:15:19;7.03;;;5.35;;
44750;SDS011;30477;48.224;11.470;2023-04-04T11:18:04;7.00;;;4.88;;
44750;SDS011;30477;48.224;11.470;2023-04-04T11:20:34;9.05;;;5.28;;
44750;SDS011;30477;48.224;11.470;2023-04-04T11:25:33;6.50;;;4.82;;
44750;SDS011;30477;48.224;11.470;2023-04-04T11:28:14;7.45;;;5.32;;
44750;SDS011;30477;48.224;11.470;2023-04-04T11:31:21;6.90;;;5.18;;
44750;SDS011;30477;48.224;11.470;2023-04-04T11:41:51;5.63;;;4.65;;
44750;SDS011;30477;48.224;11.470;2023-04-04T11:44:19;7.35;;;4.82;;
44750;SDS011;30477;48.224;11.470;2023-04-04T11:47:31;6.15;;;4.68;;
44750;SDS011;30477;48.224;11.470;2023-04-04T11:49:38;8.20;;;4.93;;
44750;SDS011;30477;48.224;11.470;2023-04-04T11:52:06;9.68;;;5.30;;
44750;SDS011;30477;48.224;11.470;2023-04-04T11:54:36;5.65;;;4.35;;
44750;SDS011;30477;48.224;11.470;2023-04-04T11:57:04;6.85;;;5.10;;
44750;SDS011;30477;48.224;11.470;2023-04-04T11:59:30;5.35;;;4.85;;
44750;SDS011;30477;48.224;11.470;2023-04-04T12:01:56;7.30;;;5.03;;
44750;SDS011;30477;48.224;11.470;2023-04-04T12:04:21;6.40;;;5.07;;
44750;SDS011;30477;48.224;11.470;2023-04-04T12:06:50;7.10;;;5.20;;
44750;SDS011;30477;48.224;11.470;2023-04-04T12:09:17;8.80;;;5.13;;
44750;SDS011;30477;48.224;11.470;2023-04-04T12:11:44;8.57;;;5.20;;
44750;SDS011;30477;48.224;11.470;2023-04-04T12:16:43;5.88;;;5.20;;
44750;SDS011;30477;48.224;11.470;2023-04-04T12:19:10;5.45;;;4.85;;
44750;SDS011;30477;48.224;11.470;2023-04-04T12:21:35;5.18;;;4.68;;
44750;SDS011;30477;48.224;11.470;2023-04-04T12:24:01;5.23;;;4.70;;
44750;SDS011;30477;48.224;11.470;2023-04-04T12:26:32;5.87;;;5.10;;
44750;SDS011;30477;48.224;11.470;2023-04-04T12:28:58;6.97;;;4.60;;
44750;SDS011;30477;48.224;11.470;2023-04-04T12:31:24;7.47;;;4.60;;
44750;SDS011;30477;48.224;11.470;2023-04-04T12:33:51;6.57;;;4.80;;
44750;SDS011;30477;48.224;11.470;2023-04-04T12:36:17;7.38;;;5.22;;
44750;SDS011;30477;48.224;11.470;2023-04-04T12:38:56;6.03;;;5.17;;
44750;SDS011;30477;48.224;11.470;2023-04-04T12:41:23;7.18;;;4.90;;
44750;SDS011;30477;48.224;11.470;2023-04-04T12:43:48;8.40;;;5.30;;
44750;SDS011;30477;48.224;11.470;2023-04-04T12:46:14;6.60;;;5.00;;
44750;SDS011;30477;48.224;11.470;2023-04-04T12:48:41;6.05;;;5.30;;
44750;SDS011;30477;48.224;11.470;2023-04-04T12:51:06;7.17;;;5.37;;
44750;SDS011;30477;48.224;11.470;2023-04-04T12:53:32;7.30;;;5.50;;
44750;SDS011;30477;48.224;11.470;2023-04-04T12:58:26;6.05;;;4.97;;
44750;SDS011;30477;48.224;11.470;2023-04-04T13:00:53;6.43;;;5.17;;
44750;SDS011;30477;48.224;11.470;2023-04-04T13:03:20;10.63;;;5.70;;
44750;SDS011;30477;48.224;11.470;2023-04-04T13:05:48;8.55;;;5.20;;
44750;SDS011;30477;48.224;11.470;2023-04-04T13:08:14;7.90;;;5.50;;
44750;SDS011;30477;48.224;11.470;2023-04-04T13:13:32;5.10;;;4.60;;
44750;SDS011;30477;48.224;11.470;2023-04-04T13:16:05;6.95;;;5.20;;
44750;SDS011;30477;48.224;11.470;2023-04-04T13:18:36;7.25;;;5.20;;
44750;SDS011;30477;48.224;11.470;2023-04-04T13:21:05;7.60;;;4.68;;
44750;SDS011;30477;48.224;11.470;2023-04-04T13:23:32;9.20;;;5.82;;
44750;SDS011;30477;48.224;11.470;2023-04-04T13:25:58;7.40;;;4.95;;
44750;SDS011;30477;48.224;11.470;2023-04-04T13:28:24;8.20;;;5.33;;
44750;SDS011;30477;48.224;11.470;2023-04-04T13:30:51;6.75;;;4.93;;
44750;SDS011;30477;48.224;11.470;2023-04-04T13:33:17;6.07;;;5.45;;
44750;SDS011;30477;48.224;11.470;2023-04-04T13:35:43;5.60;;;4.90;;
44750;SDS011;30477;48.224;11.470;2023-04-04T13:38:12;7.82;;;5.50;;
44750;SDS011;30477;48.224;11.470;2023-04-04T13:40:37;6.80;;;5.20;;
44750;SDS011;30477;48.224;11.470;2023-04-04T13:43:03;6.13;;;5.03;;
44750;SDS011;30477;48.224;11.470;2023-04-04T13:45:31;7.33;;;5.47;;
44750;SDS011;30477;48.224;11.470;2023-04-04T13:47:57;8.93;;;4.53;;
44750;SDS011;30477;48.224;11.470;2023-04-04T13:50:22;8.43;;;5.37;;
44750;SDS011;30477;48.224;11.470;2023-04-04T13:52:47;7.50;;;5.53;;
44750;SDS011;30477;48.224;11.470;2023-04-04T13:55:13;6.10;;;5.00;;
44750;SDS011;30477;48.224;11.470;2023-04-04T13:57:38;7.23;;;5.07;;
44750;SDS011;30477;48.224;11.470;2023-04-04T14:00:04;9.13;;;5.47;;
44750;SDS011;30477;48.224;11.470;2023-04-04T14:02:32;8.32;;;5.28;;
44750;SDS011;30477;48.224;11.470;2023-04-04T14:04:58;6.17;;;5.10;;
44750;SDS011;30477;48.224;11.470;2023-04-04T14:07:23;8.20;;;5.27;;
44750;SDS011;30477;48.224;11.470;2023-04-04T14:09:48;6.47;;;5.03;;
44750;SDS011;30477;48.224;11.470;2023-04-04T14:12:14;8.07;;;5.67;;
44750;SDS011;30477;48.224;11.470;2023-04-04T14:14:39;9.13;;;6.13;;
44750;SDS011;30477;48.224;11.470;2023-04-04T14:17:05;8.52;;;6.05;;
44750;SDS011;30477;48.224;11.470;2023-04-04T14:19:31;9.27;;;5.93;;
44750;SDS011;30477;48.224;11.470;2023-04-04T14:21:56;8.70;;;5.60;;
44750;SDS011;30477;48.224;11.470;2023-04-04T14:24:21;8.27;;;5.60;;
44750;SDS011;30477;48.224;11.470;2023-04-04T14:26:47;7.20;;;5.13;;
44750;SDS011;30477;48.224;11.470;2023-04-04T14:29:12;5.70;;;5.03;;
44750;SDS011;30477;48.224;11.470;2023-04-04T14:31:37;7.67;;;5.27;;
44750;SDS011;30477;48.224;11.470;2023-04-04T14:34:03;6.80;;;5.20;;
44750;SDS011;30477;48.224;11.470;2023-04-04T14:36:28;8.00;;;5.33;;
44750;SDS011;30477;48.224;11.470;2023-04-04T14:38:53;9.43;;;5.50;;
44750;SDS011;30477;48.224;11.470;2023-04-04T14:41:19;7.53;;;5.80;;
44750;SDS011;30477;48.224;11.470;2023-04-04T14:43:45;5.85;;;5.25;;
44750;SDS011;30477;48.224;11.470;2023-04-04T14:46:10;8.87;;;5.63;;
44750;SDS011;30477;48.224;11.470;2023-04-04T14:48:36;8.17;;;5.20;;
44750;SDS011;30477;48.224;11.470;2023-04-04T14:51:02;6.38;;;5.30;;
44750;SDS011;30477;48.224;11.470;2023-04-04T14:53:28;7.80;;;4.97;;
44750;SDS011;30477;48.224;11.470;2023-04-04T14:55:54;6.65;;;5.20;;
44750;SDS011;30477;48.224;11.470;2023-04-04T14:58:19;7.47;;;4.90;;
44750;SDS011;30477;48.224;11.470;2023-04-04T15:00:44;6.03;;;5.07;;
44750;SDS011;30477;48.224;11.470;2023-04-04T15:03:10;7.00;;;5.50;;
44750;SDS011;30477;48.224;11.470;2023-04-04T15:05:36;7.35;;;5.20;;
44750;SDS011;30477;48.224;11.470;2023-04-04T15:08:02;10.35;;;5.88;;
44750;SDS011;30477;48.224;11.470;2023-04-04T15:10:28;6.35;;;5.20;;